Aérodrome :
LOGIN :

S'inscrire | Disclaimer

   EN    FR    IT 

 










Légende :    VFR   VFR Marginal   IFR   IFR Intensif   IFR Très Intensif
Visi : 
Plafond : 
>= 8 km
>= 3000ft
5 à 8 km
1000 à 3000 ft
1500m à 5 km
500 à 1000 ft
800 à 1500m
200 à 500 ft
< 800m
< 200 ft
Symboles :   Orages  Brouillard  Fortes neiges  Fortes précipitations  Vent > 20 kt
SIGMETs :   Divers  Orages  Givrage  Turbulence  Onde Orograph.  Cendres Volcan.







- Altitude de l'aérodrome : 768 ft
- Code IATA : MXP


LIMC - Milano Malpensa

DERNIER METAR :
  • 222350Z VRB02KT 1200 R35R/0275D R17L/1400U R35L/0250D BCFG SCT004 02/02 Q1017 NOSIG

METARs EXPIRÉS :
  • 222320Z 35003KT 1800 R35R/0250D R17L/0500V1200U R35L/0750VP1500U BCFG SCT005 01/01 Q1017 NOSIG
  • 222250Z VRB01KT 1800 R35R/0250V0800U R17L/1400U R35L/0250VP1500D BCFG SCT008 03/03 Q1017 NOSIG
  • 222220Z 08003KT 030V160 2000 R35R/0500D R17L/0600D R35L/0225D BCFG NSC 02/02 Q1017 NOSIG
  • 222150Z 01003KT 350V050 2500 R35R/0550V0800D R17L/1100U R35L/P1500N BCFG NSC 03/03 Q1017 NOSIG
  • 222120Z 03002KT 2500 R35R/0900U R17L/0450D R35L/P1500N BCFG NSC 03/03 Q1017 NOSIG

TAF TAF LIMC
Valide du 23 à 00h jusqu'au 24 à 06h UTC


222300Z 2300/2406 VRB05KT 0200 FG NSC
BECMG 2308/2311 2000 BR BKN016
BECMG 2318/2321 1100 BCFG
Pas de NOTAMs connus pour ce terrain.



MET'MAP, la Météo Aéronautique d'un coup d'oeil ! - Copyright ORBIFLY Décembre 2007 - Disclaimer

ORBIFLY MET'MAP TEAM :

Programmation & Développement : Alexandra Zaïnal
Conception & Développement : Baudouin d'Aumeries
Co-Programmation & Développement : Marc-Olivier Méhu
Soutien technique & logistique : Manuel Goepfert

Contact : metmap@orbifly.com




SOURCES & CREDITS :

   NOAA